This is the latest recevied weather packets stored in our database for station/object MeshWX-1. If no packets are shown the sender has not sent any weather packets the latest 10 day(s).
| Time | Temp. | Humidity | Pressure | Rain* | Wind** | Luminosity | Snow |
|---|---|---|---|---|---|---|---|
| 1787768708 | 26.67° C | 43% | 998 hPa | - | - | - | - |
| 1787767149 | 27.78° C | 40% | 997.7 hPa | - | - | - | - |
| 1787766861 | 27.78° C | 40% | 997.7 hPa | - | - | - | - |
| 1787766800 | 27.78° C | 40% | 997.7 hPa | - | - | - | - |
| 1787765168 | 29.44° C | 37% | 997.5 hPa | - | - | - | - |
| 1787765089 | 29.44° C | 37% | 997.5 hPa | - | - | - | - |
| 1787764881 | 29.44° C | 37% | 997.5 hPa | - | - | - | - |
| 1787764856 | 29.44° C | 37% | 997.5 hPa | - | - | - | - |
| 1787763128 | 32.78° C | 32% | 997.1 hPa | - | - | - | - |
| 1787762900 | 32.78° C | 32% | 997.1 hPa | - | - | - | - |
| 1787762875 | 32.78° C | 32% | 997.1 hPa | - | - | - | - |
| 1787761148 | 35° C | 30% | 996.8 hPa | - | - | - | - |
| 1787761089 | 35° C | 30% | 996.8 hPa | - | - | - | - |
| 1787760949 | 35° C | 30% | 996.8 hPa | - | - | - | - |
| 1787760920 | 34.44° C | 37% | 997.9 hPa | - | - | - | - |
| 1787759904 | 34.44° C | 37% | 997.9 hPa | - | - | - | - |
| 1787757367 | 34.44° C | 37% | 997.9 hPa | - | - | - | - |
| 1787752975 | 34.44° C | 37% | 997.9 hPa | - | - | - | - |
| 1787748010 | 34.44° C | 37% | 997.9 hPa | - | - | - | - |
| 1787746206 | 34.44° C | 37% | 997.9 hPa | - | - | - | - |
| 1787742366 | 34.44° C | 37% | 997.9 hPa | - | - | - | - |
| 1787740446 | 34.44° C | 37% | 997.9 hPa | - | - | - | - |
| 1787738706 | 34.44° C | 37% | 997.9 hPa | - | - | - | - |
| 1787736728 | 34.44° C | 37% | 997.9 hPa | - | - | - | - |
| 1787736665 | 33.89° C | 37% | 998.1 hPa | - | - | - | - |
* Rain since midnight (hover to see other rain measurements)
** Current wind speed in m/s (hover to see current wind gust speed)